Time;durP1;ratioP1;P1;durP2;ratioP2;P2;SDS_P1;SDS_P2;PMS_P1;PMS_P2;Temp;Humidity;BMP_temperature;BMP_pressure;BME280_temperature;BME280_humidity;BME280_pressure;Samples;Min_cycle;Max_cycle;Signal;HPM_P1;HPM_P2
2023/10/11 00:04:23;;;;;;;4.50;2.33;;;;;;;19.97;50.56;101484.38;16119454;19;130594;-45
2023/10/11 00:09:51;;;;;;;3.47;1.85;;;;;;;19.96;50.82;101477.13;16115052;19;131022;-49
2023/10/11 00:15:13;;;;;;;4.85;2.47;;;;;;;19.96;50.73;101477.13;16117978;19;130805;-48
2023/10/11 00:20:50;;;;;;;4.78;2.05;;;;;;;19.96;50.48;101481.84;16117999;19;134225;-47
2023/10/11 00:26:17;;;;;;;3.03;1.90;;;;;;;19.95;50.89;101475.44;16115207;19;130783;-48
2023/10/11 00:31:39;;;;;;;3.50;1.67;;;;;;;19.95;50.69;101483.75;16115632;19;130069;-47
2023/10/11 00:37:02;;;;;;;4.07;1.95;;;;;;;19.95;50.62;101469.03;16112932;19;130233;-48
2023/10/11 00:42:24;;;;;;;3.90;1.90;;;;;;;19.94;50.60;101476.50;16115194;19;129629;-48
2023/10/11 00:47:46;;;;;;;4.85;1.98;;;;;;;19.93;50.57;101469.28;16113964;19;130765;-48
2023/10/11 00:53:10;;;;;;;3.90;1.73;;;;;;;19.93;50.44;101469.28;16114280;19;129489;-48
2023/10/11 00:58:32;;;;;;;1.70;1.20;;;;;;;19.92;50.37;101464.81;16116909;19;130137;-46
2023/10/11 01:03:55;;;;;;;1.83;1.38;;;;;;;19.92;50.45;101459.28;16113050;19;130839;-49
2023/10/11 01:09:18;;;;;;;3.15;1.90;;;;;;;19.91;50.60;101456.72;16111640;19;131137;-48
2023/10/11 01:14:56;;;;;;;3.05;1.60;;;;;;;19.92;50.45;101453.72;16112417;19;130674;-47
2023/10/11 01:20:19;;;;;;;3.05;1.50;;;;;;;19.91;50.59;101445.63;16110494;19;130396;-50
2023/10/11 01:25:41;;;;;;;3.33;1.92;;;;;;;19.91;50.39;101445.63;16113386;19;129600;-47
2023/10/11 01:31:10;;;;;;;2.65;1.52;;;;;;;19.90;50.75;101439.22;16108841;19;131267;-48
2023/10/11 01:36:34;;;;;;;2.90;1.30;;;;;;;19.91;50.57;101437.28;16108560;19;131808;-49
2023/10/11 01:41:58;;;;;;;2.38;1.23;;;;;;;19.89;50.64;101431.97;16110003;19;129585;-48
2023/10/11 01:47:20;;;;;;;2.30;1.20;;;;;;;19.89;50.41;101431.13;16106540;19;130716;-49
2023/10/11 01:52:47;;;;;;;2.85;1.65;;;;;;;19.89;50.38;101423.66;16107144;19;130936;-47
2023/10/11 01:58:12;;;;;;;2.85;1.40;;;;;;;19.88;50.54;101418.34;16104958;19;131915;-48
2023/10/11 02:03:39;;;;;;;2.60;1.70;;;;;;;19.87;50.42;101414.72;16109398;19;132219;-46
2023/10/11 02:09:02;;;;;;;2.30;1.30;;;;;;;19.88;50.34;101396.97;16107424;19;130095;-48
2023/10/11 02:14:28;;;;;;;2.60;1.48;;;;;;;19.87;50.47;101400.84;16108015;19;129889;-46
2023/10/11 02:19:50;;;;;;;;;;;;;;;19.84;50.56;101396.63;16107433;19;130173;-46
2023/10/11 02:25:15;;;;;;;3.17;1.67;;;;;;;19.87;50.50;101383.34;16107433;19;130561;-46
2023/10/11 02:30:38;;;;;;;1.48;1.17;;;;;;;19.86;50.31;101388.03;16105548;19;130909;-47
2023/10/11 02:36:17;;;;;;;3.28;1.40;;;;;;;19.86;50.42;101376.09;16106481;19;130800;-47
2023/10/11 02:41:39;;;;;;;1.73;1.23;;;;;;;19.84;50.79;101379.97;16107177;19;130849;-47
2023/10/11 02:47:01;;;;;;;2.17;1.25;;;;;;;19.85;50.51;101378.00;16112462;19;130079;-45
2023/10/11 02:52:29;;;;;;;1.95;1.35;;;;;;;19.85;50.57;101369.69;16123936;19;129533;-47
2023/10/11 02:58:05;;;;;;;2.63;1.30;;;;;;;19.83;50.55;101358.84;16125957;19;130588;-48
2023/10/11 03:03:28;;;;;;;2.28;1.42;;;;;;;19.84;50.67;101373.53;16123475;19;130507;-47
2023/10/11 03:08:53;;;;;;;3.25;1.40;;;;;;;19.84;50.46;101368.00;16118651;19;130911;-50
2023/10/11 03:14:15;;;;;;;2.00;1.38;;;;;;;19.83;50.30;101382.97;16119207;19;129718;-46
2023/10/11 03:19:42;;;;;;;2.67;1.63;;;;;;;19.84;50.46;101368.00;16119608;19;130161;-48
2023/10/11 03:25:12;;;;;;;1.73;1.25;;;;;;;19.83;50.57;101366.31;16116655;19;129546;-47
2023/10/11 03:30:35;;;;;;;2.15;1.15;;;;;;;19.82;50.43;101359.06;16120890;19;130275;-48
2023/10/11 03:35:57;;;;;;;2.10;1.50;;;;;;;19.82;50.48;101347.94;16120323;19;129821;-47
2023/10/11 03:41:29;;;;;;;1.75;1.20;;;;;;;19.82;50.45;101347.94;16118243;19;129467;-47
2023/10/11 03:46:54;;;;;;;2.00;1.40;;;;;;;19.81;50.49;101349.06;16121376;19;130318;-47
2023/10/11 03:52:22;;;;;;;1.58;1.10;;;;;;;19.80;50.37;101348.22;16114918;19;130689;-49
2023/10/11 03:57:45;;;;;;;1.80;1.05;;;;;;;19.80;50.21;101353.75;16119273;19;130281;-47
2023/10/11 04:03:08;;;;;;;1.83;1.17;;;;;;;19.80;50.41;101350.16;16117245;19;129961;-49
2023/10/11 04:08:30;;;;;;;2.22;1.40;;;;;;;19.80;50.41;101358.47;16114653;19;130598;-49
2023/10/11 04:13:53;;;;;;;2.13;1.42;;;;;;;19.79;50.38;101351.25;16112436;19;130571;-48
2023/10/11 04:19:15;;;;;;;1.90;1.40;;;;;;;19.79;50.32;101345.69;16114830;19;131521;-49
2023/10/11 04:24:38;;;;;;;1.58;1.27;;;;;;;19.79;50.11;101337.34;16116756;19;130689;-49
2023/10/11 04:30:17;;;;;;;2.25;1.30;;;;;;;19.78;50.52;101339.28;16115773;19;130189;-49
2023/10/11 04:35:43;;;;;;;2.22;1.50;;;;;;;19.78;50.29;101352.31;16113194;19;129536;-46
2023/10/11 04:41:14;;;;;;;2.25;1.50;;;;;;;19.77;50.51;101343.13;16116084;19;130337;-47
2023/10/11 04:46:38;;;;;;;3.08;1.50;;;;;;;19.78;50.59;101349.56;16113839;19;129611;-49
2023/10/11 04:52:00;;;;;;;1.90;1.50;;;;;;;19.76;50.49;101343.41;16115744;19;131537;-46
2023/10/11 04:58:09;;;;;;;2.60;1.63;;;;;;;19.76;50.45;101327.56;16116810;19;129780;-50
2023/10/11 05:03:05;;;;;;;3.80;1.50;;;;;;;19.75;50.46;101320.34;16111258;19;130132;-50
2023/10/11 05:08:51;;;;;;;3.30;1.70;;;;;;;19.76;50.01;101337.84;16109943;19;129716;-47
2023/10/11 05:14:28;;;;;;;2.03;1.30;;;;;;;19.76;50.25;101337.84;16110246;19;130017;-45
2023/10/11 05:26:16;;;;;;;2.40;1.73;;;;;;;19.73;49.57;101346.66;16115638;19;130216;-49
2023/10/11 05:36:48;;;;;;;7.60;1.90;;;;;;;19.78;49.78;101360.66;16108729;19;131245;-49
2023/10/11 05:53:32;;;;;;;4.80;1.83;;;;;;;19.78;49.66;101367.03;16113659;19;129631;-48
2023/10/11 05:58:54;;;;;;;5.97;2.20;;;;;;;19.75;49.60;101352.81;16111644;19;130564;-47
2023/10/11 06:04:16;;;;;;;11.50;2.05;;;;;;;19.77;49.96;101358.97;16107323;19;130998;-49
2023/10/11 06:09:58;;;;;;;4.18;1.83;;;;;;;19.77;49.53;101364.50;16109161;19;129705;-47
2023/10/11 06:15:21;;;;;;;5.47;2.22;;;;;;;19.76;49.52;101360.03;16111512;19;129944;-47
2023/10/11 06:21:01;;;;;;;3.58;2.00;;;;;;;19.76;49.83;101360.03;16106115;19;131696;-49
2023/10/11 06:26:52;;;;;;;3.50;1.77;;;;;;;19.76;49.76;101365.59;16110290;19;129944;-51
2023/10/11 06:32:12;;;;;;;3.95;1.95;;;;;;;19.75;49.62;101369.47;16111715;19;130278;-51
2023/10/11 06:37:41;;;;;;;8.85;2.35;;;;;;;19.73;49.68;101355.84;16109114;19;130634;-51
2023/10/11 06:43:05;;;;;;;4.10;1.77;;;;;;;19.74;49.99;101367.78;16114415;19;129640;-53
2023/10/11 06:48:29;;;;;;;4.45;1.73;;;;;;;19.74;50.00;101379.75;16112122;19;130561;-51
2023/10/11 06:53:56;;;;;;;5.28;1.98;;;;;;;19.73;49.80;101383.59;16111934;19;130411;-48
2023/10/11 06:59:19;;;;;;;4.38;2.30;;;;;;;19.73;49.58;101386.38;16113944;19;129988;-53
2023/10/11 07:04:50;;;;;;;4.80;2.10;;;;;;;19.74;50.05;101384.44;16108399;19;130855;-53
2023/10/11 07:15:53;;;;;;;3.13;1.75;;;;;;;19.74;49.61;101396.41;16110630;19;129856;-54
2023/10/11 07:21:19;;;;;;;7.15;2.30;;;;;;;19.79;49.53;101388.16;16102280;19;130733;-48
2023/10/11 07:32:09;;;;;;;3.35;2.00;;;;;;;19.93;48.71;101405.44;16107663;19;130896;-51
2023/10/11 07:37:32;;;;;;;4.15;2.45;;;;;;;20.01;48.59;101411.72;16117618;19;131605;-51
2023/10/11 07:42:55;;;;;;;4.22;2.25;;;;;;;20.07;48.32;101417.13;16119855;19;129807;-47
2023/10/11 07:48:16;;;;;;;7.70;2.53;;;;;;;20.14;48.15;101419.78;16120648;19;129423;-49
2023/10/11 07:53:43;;;;;;;7.00;2.42;;;;;;;20.36;48.03;101430.22;16118050;19;130597;-48
2023/10/11 07:59:09;;;;;;;3.55;2.20;;;;;;;21.25;46.64;101436.41;16122949;19;130284;-50
2023/10/11 08:04:31;;;;;;;5.00;2.45;;;;;;;21.03;46.77;101429.63;16116177;19;129240;-48
2023/10/11 08:09:55;;;;;;;9.13;2.85;;;;;;;20.84;46.91;101422.59;16119338;19;130054;-47
2023/10/11 08:15:21;;;;;;;4.80;2.40;;;;;;;20.69;47.40;101417.53;16114099;19;131059;-50
2023/10/11 08:20:46;;;;;;;4.25;2.80;;;;;;;20.56;47.27;101425.09;16115544;19;129729;-48
2023/10/11 08:26:14;;;;;;;5.20;2.60;;;;;;;20.49;47.21;101443.84;16116247;19;130073;-47
2023/10/11 08:31:39;;;;;;;8.15;2.97;;;;;;;20.42;46.99;101434.81;16118802;19;130529;-46
2023/10/11 08:37:01;;;;;;;6.53;3.03;;;;;;;20.36;47.42;101435.78;16112436;19;131156;-49
2023/10/11 08:42:30;;;;;;;6.15;3.08;;;;;;;20.34;47.35;101440.75;16114824;19;130222;-49
2023/10/11 08:47:53;;;;;;;8.10;3.10;;;;;;;20.33;46.86;101441.84;16112185;19;130236;-51
2023/10/11 08:53:16;;;;;;;9.88;3.25;;;;;;;20.34;47.22;101449.94;16116939;19;135183;-47
2023/10/11 08:58:38;;;;;;;9.07;3.30;;;;;;;20.37;47.24;101446.66;16117982;19;129823;-53
2023/10/11 09:04:05;;;;;;;7.30;3.22;;;;;;;20.40;46.90;101453.66;16115857;19;129752;-49
2023/10/11 09:09:36;;;;;;;5.13;3.00;;;;;;;20.42;46.92;101462.63;16112612;19;129813;-47
2023/10/11 09:15:00;;;;;;;7.90;3.42;;;;;;;20.43;47.15;101458.75;16112721;19;130774;-45
2023/10/11 09:20:40;;;;;;;6.60;3.95;;;;;;;20.45;46.91;101462.09;16112852;19;129658;-47
2023/10/11 09:26:05;;;;;;;7.82;3.30;;;;;;;20.46;47.11;101458.22;16113630;19;130912;-48
2023/10/11 09:31:27;;;;;;;9.43;3.60;;;;;;;20.46;46.96;101461.00;16115297;19;130763;-51
2023/10/11 09:36:51;;;;;;;8.50;3.90;;;;;;;20.48;47.25;101461.63;16114093;19;131341;-45
2023/10/11 09:42:17;;;;;;;8.45;4.13;;;;;;;20.48;47.34;101456.06;16114614;19;129489;-46
2023/10/11 09:47:41;;;;;;;6.78;3.90;;;;;;;20.47;47.47;101465.47;16115379;19;129414;-47
2023/10/11 09:53:07;;;;;;;14.27;3.70;;;;;;;20.49;47.38;101490.28;16112704;19;131687;-44
2023/10/11 09:58:45;;;;;;;9.00;3.67;;;;;;;20.49;47.82;101470.81;16112888;19;131560;-48
2023/10/11 10:04:09;;;;;;;8.52;3.83;;;;;;;20.48;47.61;101478.28;16115565;19;129693;-49
2023/10/11 10:09:52;;;;;;;9.43;4.07;;;;;;;20.50;47.83;101478.91;16115094;19;130840;-46
2023/10/11 10:15:23;;;;;;;6.03;3.90;;;;;;;20.50;48.02;101484.47;16114239;19;130517;-49
2023/10/11 10:21:06;;;;;;;12.13;4.18;;;;;;;20.51;48.25;101477.81;16107534;19;130610;-48
2023/10/11 10:26:29;;;;;;;8.85;4.30;;;;;;;20.52;48.33;101485.06;16109321;19;129286;-49
2023/10/11 10:32:05;;;;;;;8.80;4.47;;;;;;;20.58;47.99;101484.06;16112139;19;130632;-49
2023/10/11 10:38:03;;;;;;;11.75;5.70;;;;;;;20.62;48.14;101489.97;16112108;19;130636;-48
2023/10/11 10:43:27;;;;;;;13.13;5.30;;;;;;;20.63;48.53;101499.16;16110548;19;129714;-47
2023/10/11 10:48:51;;;;;;;10.48;5.20;;;;;;;20.66;48.58;101495.91;16107750;19;131168;-49
2023/10/11 10:54:14;;;;;;;10.25;4.95;;;;;;;20.69;48.48;101484.25;16106905;19;131678;-47
2023/10/11 10:59:48;;;;;;;8.93;4.97;;;;;;;20.72;48.72;101478.22;16111294;19;130394;-51
2023/10/11 11:05:15;;;;;;;11.35;4.43;;;;;;;20.74;48.30;101467.69;16103417;19;130088;-54
2023/10/11 11:10:47;;;;;;;11.93;4.82;;;;;;;20.74;48.40;101464.91;16120069;19;129437;-56
2023/10/11 11:16:26;;;;;;;7.43;4.55;;;;;;;20.73;48.44;101446.53;16123905;19;130476;-52
2023/10/11 11:21:48;;;;;;;13.38;4.72;;;;;;;20.70;48.75;101439.56;16124739;19;130626;-53
2023/10/11 11:27:28;;;;;;;9.05;5.32;;;;;;;20.72;48.84;101430.94;16122957;19;130999;-54
2023/10/11 11:32:50;;;;;;;8.07;4.30;;;;;;;20.70;48.73;101419.22;16126103;19;129676;-51
2023/10/11 11:38:20;;;;;;;8.77;4.82;;;;;;;20.70;48.62;101408.97;16126978;19;129947;-56
2023/10/11 11:43:46;;;;;;;8.93;4.82;;;;;;;20.68;48.76;101391.69;16124378;19;128922;-53
2023/10/11 11:49:09;;;;;;;11.48;4.72;;;;;;;20.68;48.79;101394.47;16122588;19;129668;-55
2023/10/11 11:54:31;;;;;;;8.20;4.63;;;;;;;20.69;49.26;101378.63;16120906;19;134771;-53
2023/10/11 11:59:53;;;;;;;10.82;5.60;;;;;;;20.68;49.02;101383.34;16122538;19;129705;-53
2023/10/11 12:05:15;;;;;;;8.68;4.93;;;;;;;20.68;49.33;101393.59;16118150;19;129564;-57
2023/10/11 12:10:37;;;;;;;10.73;5.82;;;;;;;20.69;48.90;101392.53;16121600;19;129477;-52
2023/10/11 12:16:02;;;;;;;12.25;5.72;;;;;;;20.73;48.90;101365.91;16117360;19;131513;-46
2023/10/11 12:21:25;;;;;;;14.30;5.82;;;;;;;20.73;48.99;101363.13;16112474;19;130990;-48
2023/10/11 12:26:47;;;;;;;8.07;5.28;;;;;;;20.75;49.36;101355.38;16121229;19;129886;-48
2023/10/11 12:32:09;;;;;;;12.25;6.00;;;;;;;20.75;49.08;101342.34;16121268;19;129887;-47
2023/10/11 12:37:33;;;;;;;10.45;5.75;;;;;;;20.76;49.35;101320.97;16118601;19;130831;-47
2023/10/11 12:42:58;;;;;;;14.95;5.78;;;;;;;20.77;48.86;101319.88;16117170;19;129605;-47
2023/10/11 12:48:19;;;;;;;10.70;6.10;;;;;;;20.79;48.93;101320.47;16116796;19;131016;-47
2023/10/11 12:53:43;;;;;;;12.18;6.63;;;;;;;20.79;48.78;101319.59;16113942;19;129418;-48
2023/10/11 12:59:14;;;;;;;11.60;6.05;;;;;;;20.81;48.90;101317.44;16116166;19;130182;-49
2023/10/11 13:04:41;;;;;;;10.93;5.88;;;;;;;20.79;49.25;101320.47;16112925;19;131345;-52
2023/10/11 13:10:06;;;;;;;11.85;6.25;;;;;;;20.80;49.05;101307.41;16113673;19;130288;-48
2023/10/11 13:15:30;;;;;;;13.57;6.28;;;;;;;20.81;48.84;101298.78;16113499;19;129985;-48
2023/10/11 13:20:56;;;;;;;15.45;6.47;;;;;;;20.83;49.18;101304.13;16113168;19;129740;-48
2023/10/11 13:26:20;;;;;;;12.15;5.97;;;;;;;20.83;48.71;101290.22;16110171;19;130629;-46
2023/10/11 13:31:47;;;;;;;13.27;5.73;;;;;;;20.84;49.22;101297.47;16106978;19;130716;-47
2023/10/11 13:37:11;;;;;;;9.93;5.70;;;;;;;20.83;48.76;101279.91;16110775;19;129761;-52
2023/10/11 13:42:37;;;;;;;10.40;5.57;;;;;;;20.84;49.11;101264.94;16116391;19;130908;-48
2023/10/11 13:48:04;;;;;;;15.02;5.68;;;;;;;20.85;48.64;101261.06;16109064;19;129262;-51
2023/10/11 13:53:26;;;;;;;10.30;5.22;;;;;;;20.85;48.78;101257.44;16109892;19;132303;-51
2023/10/11 13:58:48;;;;;;;10.30;5.53;;;;;;;20.86;48.91;101251.63;16116360;19;130340;-49
2023/10/11 14:04:14;;;;;;;9.40;5.40;;;;;;;20.88;49.04;101240.22;16111112;19;130050;-46
2023/10/11 14:09:39;;;;;;;10.43;5.03;;;;;;;20.89;49.03;101237.22;16112529;19;129543;-45
2023/10/11 14:15:08;;;;;;;10.77;5.20;;;;;;;20.89;48.53;101223.31;16110155;19;129591;-48
2023/10/11 14:20:32;;;;;;;10.52;5.78;;;;;;;20.89;48.72;101214.97;16110443;19;130415;-48
2023/10/11 14:25:58;;;;;;;10.05;5.50;;;;;;;20.89;48.74;101198.28;16110927;19;130490;-44
2023/10/11 14:31:22;;;;;;;11.18;4.78;;;;;;;20.90;48.68;101174.94;16109626;19;129923;-46
2023/10/11 14:36:47;;;;;;;12.23;4.97;;;;;;;20.90;48.83;101183.28;16106030;19;129795;-47
2023/10/11 14:42:13;;;;;;;11.38;5.18;;;;;;;20.90;48.40;101183.28;16109897;19;130196;-49
2023/10/11 14:47:36;;;;;;;11.82;4.72;;;;;;;20.89;48.36;101173.25;16107631;19;134752;-47
2023/10/11 14:53:02;;;;;;;9.00;4.32;;;;;;;20.89;48.39;101167.69;16106574;19;129555;-45
2023/10/11 14:58:26;;;;;;;;;;;;;;;20.87;48.51;101177.34;16106131;19;129933;-48
2023/10/11 15:03:51;;;;;;;7.40;4.50;;;;;;;20.87;48.33;101158.75;16109626;19;131118;-44
2023/10/11 15:09:16;;;;;;;8.15;4.07;;;;;;;20.87;48.52;101161.53;16105168;19;130938;-46
2023/10/11 15:14:40;;;;;;;12.98;5.03;;;;;;;20.87;48.25;101149.56;16109814;19;130744;-46
2023/10/11 15:20:07;;;;;;;12.60;5.00;;;;;;;20.86;48.43;101143.16;16103236;19;129549;-46
2023/10/11 15:25:34;;;;;;;6.82;3.90;;;;;;;20.86;48.65;101151.50;16105123;19;130598;-45
2023/10/11 15:31:04;;;;;;;11.35;4.63;;;;;;;20.86;48.48;101136.78;16107470;19;130997;-43
2023/10/11 15:36:31;;;;;;;10.63;4.45;;;;;;;20.84;48.15;101130.63;16102013;19;129385;-44
2023/10/11 15:41:55;;;;;;;6.00;3.80;;;;;;;20.82;48.33;101128.06;16103430;19;129429;-46
2023/10/11 15:47:20;;;;;;;12.55;4.22;;;;;;;20.81;48.25;101117.22;16104004;19;129911;-44
2023/10/11 15:52:49;;;;;;;7.72;3.83;;;;;;;20.78;48.39;101121.38;16105265;19;130765;-46
2023/10/11 15:58:16;;;;;;;11.15;3.80;;;;;;;20.80;48.55;101124.72;16116784;19;130862;-46
2023/10/11 16:03:42;;;;;;;8.77;3.97;;;;;;;20.79;48.88;101119.41;16118672;19;129600;-44
2023/10/11 16:09:11;;;;;;;10.90;4.10;;;;;;;20.78;48.72;101121.38;16114594;19;129667;-45
2023/10/11 16:14:35;;;;;;;9.68;3.90;;;;;;;20.77;48.76;101111.34;16119965;19;131235;-44
2023/10/11 16:20:05;;;;;;;8.93;3.90;;;;;;;20.77;49.12;101114.13;16115067;19;130470;-45
2023/10/11 16:25:29;;;;;;;9.95;4.38;;;;;;;20.74;48.82;101120.97;16118200;19;129686;-45
2023/10/11 16:30:58;;;;;;;11.45;4.47;;;;;;;20.74;49.28;101112.66;16116748;19;130703;-45
2023/10/11 16:36:22;;;;;;;9.02;3.63;;;;;;;20.72;49.21;101120.41;16118148;19;131290;-44
2023/10/11 16:41:46;;;;;;;14.33;3.90;;;;;;;20.70;49.42;101116.19;16110976;19;130711;-44
2023/10/11 16:47:10;;;;;;;8.15;3.83;;;;;;;20.69;49.40;101115.38;16108750;19;129806;-45
2023/10/11 16:52:35;;;;;;;7.78;3.25;;;;;;;20.68;49.25;101110.03;16116731;19;129843;-45
2023/10/11 16:57:59;;;;;;;;;;;;;;;20.64;49.56;101103.34;16116855;19;131479;-44
2023/10/11 17:03:22;;;;;;;8.40;3.90;;;;;;;20.64;49.55;101106.13;16114670;19;130464;-44
2023/10/11 17:08:53;;;;;;;11.57;3.70;;;;;;;20.64;49.39;101114.44;16110426;19;129355;-45
2023/10/11 17:14:15;;;;;;;9.23;3.33;;;;;;;20.63;49.39;101101.66;16110026;19;131561;-45
2023/10/11 17:19:38;;;;;;;8.38;3.25;;;;;;;20.62;49.61;101111.09;16108203;19;130449;-50
2023/10/11 17:25:01;;;;;;;10.63;3.67;;;;;;;20.64;49.66;101108.91;16114862;19;129759;-45
2023/10/11 17:30:30;;;;;;;7.43;3.50;;;;;;;20.67;49.45;101113.94;16111184;19;129879;-43
2023/10/11 17:35:53;;;;;;;6.32;3.60;;;;;;;20.66;49.25;101127.00;16110312;19;131156;-53
2023/10/11 17:41:18;;;;;;;9.50;3.47;;;;;;;20.68;49.36;101133.13;16110188;19;134806;-48
2023/10/11 17:46:42;;;;;;;;;;;;;;;20.69;49.40;101150.66;16113422;19;129990;-49
2023/10/11 17:52:07;;;;;;;6.75;2.97;;;;;;;20.72;49.03;101144.59;16109790;19;130824;-48
2023/10/11 17:57:29;;;;;;;8.43;3.53;;;;;;;20.74;49.27;101156.31;16112280;19;129808;-48
2023/10/11 18:02:51;;;;;;;8.48;2.88;;;;;;;20.75;49.50;101141.31;16110223;19;134422;-54
2023/10/11 18:08:13;;;;;;;6.68;3.15;;;;;;;20.75;49.21;101150.50;16112015;19;131774;-45
2023/10/11 18:13:35;;;;;;;7.63;2.92;;;;;;;20.77;49.69;101155.81;16110426;19;130034;-45
2023/10/11 18:19:00;;;;;;;4.93;3.05;;;;;;;20.78;49.64;101151.94;16110803;19;129800;-47
2023/10/11 18:24:24;;;;;;;8.23;2.97;;;;;;;20.79;49.39;101167.53;16105045;19;131758;-46
2023/10/11 18:29:48;;;;;;;5.15;2.70;;;;;;;20.79;49.77;101144.44;16107607;19;131882;-44
2023/10/11 18:35:11;;;;;;;8.20;2.72;;;;;;;20.81;49.59;101148.63;16107841;19;131827;-46
2023/10/11 18:40:34;;;;;;;10.73;2.83;;;;;;;20.82;49.75;101138.38;16110303;19;129511;-48
2023/10/11 18:45:56;;;;;;;14.43;2.78;;;;;;;20.82;50.24;101128.06;16108983;19;133556;-47
2023/10/11 18:51:19;;;;;;;8.07;2.88;;;;;;;20.82;50.11;101111.41;16099678;19;131636;-48
2023/10/11 18:56:41;;;;;;;8.63;3.53;;;;;;;20.83;49.87;101115.84;16107756;19;129659;-45
2023/10/11 19:02:03;;;;;;;5.43;2.88;;;;;;;20.84;50.10;101114.75;16103166;19;130541;-45
2023/10/11 19:07:25;;;;;;;12.65;3.55;;;;;;;20.85;50.06;101101.72;16105243;19;129871;-46
2023/10/11 19:12:47;;;;;;;11.25;2.65;;;;;;;20.85;50.44;101104.50;16104633;19;129591;-47
2023/10/11 19:18:10;;;;;;;9.82;2.88;;;;;;;20.84;50.00;101109.19;16103376;19;131051;-46
2023/10/11 19:23:33;;;;;;;9.23;2.67;;;;;;;20.85;50.39;101113.66;16107069;19;129349;-46
2023/10/11 19:28:55;;;;;;;8.30;2.63;;;;;;;20.87;50.13;101107.84;16113604;19;130723;-48
2023/10/11 19:34:21;;;;;;;16.77;3.00;;;;;;;20.87;50.15;101103.13;16118818;19;130399;-49
2023/10/11 19:39:45;;;;;;;11.00;3.05;;;;;;;20.86;50.58;101101.44;16119113;19;130449;-47
2023/10/11 19:45:15;;;;;;;9.60;2.58;;;;;;;20.86;50.33;101107.00;16124274;19;129571;-45
2023/10/11 19:50:38;;;;;;;13.30;2.58;;;;;;;20.86;50.55;101104.22;16122226;19;130748;-47
2023/10/11 19:56:03;;;;;;;6.07;2.78;;;;;;;20.86;50.14;101095.06;16119724;19;130738;-44
2023/10/11 20:01:25;;;;;;;4.50;2.35;;;;;;;20.86;50.37;101101.44;16115122;19;129550;-43
2023/10/11 20:06:53;;;;;;;5.97;2.45;;;;;;;20.85;50.43;101093.38;16115060;19;129572;-45
2023/10/11 20:12:16;;;;;;;6.35;2.35;;;;;;;20.86;50.71;101108.97;16118051;19;129206;-50
2023/10/11 20:17:51;;;;;;;5.93;2.72;;;;;;;20.87;50.48;101108.69;16118392;19;131134;-45
2023/10/11 20:23:16;;;;;;;14.40;2.50;;;;;;;20.87;50.32;101111.47;16119944;19;129956;-45
2023/10/11 20:28:38;;;;;;;11.98;2.85;;;;;;;20.89;50.43;101116.78;16116762;19;129597;-51
2023/10/11 20:34:00;;;;;;;9.25;3.17;;;;;;;20.89;50.40;101100.94;16117909;19;129919;-46
2023/10/11 20:39:22;;;;;;;13.68;3.13;;;;;;;20.88;50.03;101109.53;16110708;19;130009;-49
2023/10/11 20:44:44;;;;;;;8.15;2.50;;;;;;;20.86;50.32;101109.78;16113996;19;129245;-48
2023/10/11 20:50:08;;;;;;;10.45;2.60;;;;;;;20.84;50.16;101114.75;16117199;19;131157;-47
2023/10/11 20:55:31;;;;;;;8.48;2.45;;;;;;;20.81;50.12;101115.28;16115852;19;130044;-49
2023/10/11 21:00:54;;;;;;;6.30;2.45;;;;;;;20.79;50.02;101122.19;16121276;19;130276;-47
2023/10/11 21:06:16;;;;;;;4.93;2.45;;;;;;;20.77;49.90;101118.81;16115756;19;130395;-45
2023/10/11 21:11:39;;;;;;;7.18;2.33;;;;;;;20.75;50.37;101116.28;16116303;19;129849;-50
2023/10/11 21:17:00;;;;;;;7.70;2.45;;;;;;;20.72;50.17;101120.41;16116047;19;131293;-45
2023/10/11 21:22:23;;;;;;;6.60;2.15;;;;;;;20.70;50.34;101119.84;16112597;19;130310;-49
2023/10/11 21:27:45;;;;;;;6.30;2.47;;;;;;;20.70;49.87;101127.31;16112331;19;130398;-46
2023/10/11 21:33:13;;;;;;;9.18;2.38;;;;;;;20.69;50.30;101122.84;16114617;19;131239;-45
2023/10/11 21:38:36;;;;;;;6.63;2.40;;;;;;;20.66;49.92;101134.50;16115889;19;130129;-48
2023/10/11 21:43:59;;;;;;;5.43;2.08;;;;;;;20.64;50.09;101123.63;16113255;19;130352;-47
2023/10/11 21:49:22;;;;;;;5.70;2.22;;;;;;;20.63;49.86;101116.38;16111367;19;129945;-47
2023/10/11 21:54:47;;;;;;;4.53;2.22;;;;;;;20.62;49.88;101122.19;16112760;19;129477;-46
2023/10/11 22:00:14;;;;;;;6.80;2.25;;;;;;;20.62;50.10;101127.75;16111764;19;130811;-47
2023/10/11 22:05:39;;;;;;;6.53;2.20;;;;;;;20.60;49.95;101153.88;16112928;19;130084;-46
2023/10/11 22:11:01;;;;;;;3.60;1.70;;;;;;;20.60;49.82;101153.03;16110415;19;129031;-48
2023/10/11 22:16:23;;;;;;;5.90;2.13;;;;;;;20.59;50.30;101151.34;16111870;19;131108;-46
2023/10/11 22:21:48;;;;;;;5.68;2.30;;;;;;;20.57;50.08;101148.81;16109806;19;130186;-46
2023/10/11 22:27:10;;;;;;;5.60;2.50;;;;;;;20.55;49.75;101134.34;16107457;19;129619;-46
2023/10/11 22:32:32;;;;;;;5.22;1.80;;;;;;;20.55;50.28;101151.03;16110669;19;130477;-46
2023/10/11 22:37:55;;;;;;;6.13;1.90;;;;;;;20.54;49.74;101167.94;16110699;19;130088;-46
2023/10/11 22:43:17;;;;;;;3.60;1.80;;;;;;;20.53;49.77;101153.22;16108443;19;132593;-47
2023/10/11 22:48:51;;;;;;;3.55;1.88;;;;;;;20.52;50.24;101137.63;16108446;19;130280;-47
2023/10/11 22:54:13;;;;;;;4.22;1.83;;;;;;;20.51;50.07;101130.38;16106952;19;130946;-49
2023/10/11 22:59:37;;;;;;;3.35;1.80;;;;;;;20.51;49.92;101116.50;16105675;19;130990;-46
2023/10/11 23:05:00;;;;;;;5.32;1.80;;;;;;;20.50;49.94;101130.63;16116661;19;130333;-48
2023/10/11 23:10:22;;;;;;;4.80;1.98;;;;;;;20.48;49.97;101139.22;16121786;19;129877;-46
2023/10/11 23:15:54;;;;;;;5.45;2.28;;;;;;;20.48;50.16;101166.19;16120036;19;130480;-45
2023/10/11 23:21:20;;;;;;;4.68;2.15;;;;;;;20.47;49.78;101173.66;16121632;19;130901;-48
2023/10/11 23:26:43;;;;;;;3.20;1.85;;;;;;;20.46;49.63;101183.09;16122804;19;129491;-46
2023/10/11 23:32:06;;;;;;;4.78;2.10;;;;;;;20.45;49.66;101192.53;16121894;19;130875;-45
2023/10/11 23:37:29;;;;;;;4.30;2.15;;;;;;;20.45;49.65;101189.75;16123938;19;130124;-46
2023/10/11 23:42:57;;;;;;;4.00;1.90;;;;;;;20.44;49.66;101188.91;16122152;19;131049;-45
2023/10/11 23:48:22;;;;;;;4.25;1.92;;;;;;;20.43;50.08;101191.97;16116594;19;129646;-47
2023/10/11 23:53:45;;;;;;;4.47;2.10;;;;;;;20.42;49.70;101193.88;16119409;19;131262;-48
2023/10/11 23:59:13;;;;;;;4.35;2.28;;;;;;;20.42;49.81;101187.50;16118840;19;128949;-47
